Hancock, Wisconsin
Current Conditions -  °F | °C
As of 9:16 AM on Monday 24 Nov 2014 (Local Time) from KY50 Reporting Station
Light Rain Light Rain  
Wind Chill: 29°   Ceiling: 900
Heat Index: 37°   Visibility: 2.5mi
Dew Point: 37°   Wind: 14mph
Humidity: 100%   Direction: 300°WNW
Pressure: 29.11"   Gusts: NA
Location:  44.13°N, 89.52°W
Report Text: KY50 241516Z AUTO 30012KT 2 1/2SM -RA BR OVC009 03/03 A2911 RMK AO2 TSNO CIG 007V013 P0000
Loading
Personal Weather Stations






























Interactive Weather Map New forecast layout! Learn more

10-Day Weather Forecast

Advertisements
Track Severe Weather on mobile